PWSweather.com
Personal Weather Stations
Station Observations
WISCHPK61
Green Bay Schmitt Park, Green Bay, WI 54311

Green Bay Schmitt ParkGreen Bay, WI 54311

Lat: 44.514277, Lon: -87.935067

Elevation: 735

Station Type: Acu Rite Pro Weather Center model 02032C

http://greenbayweathercam.com

High Low Average
Temperature 17.6°F-8.0°C 1.9°F-16.7°C 7.9°F-13.4°C
Dew Point 17.4°F-8.1°C -2.8°F-19.3°C 6.3°F-14.3°C
Winds Calm Calm Calm Calm Calm SWCalm SW
Wind Gusts -- -- --
Humidity 99% 48% 94%
Pressure 29.87 in1011.5 mb 29.66 in1004.4 mb -
Precipitation 0.00 in0.0 mm - -
Hour Temp Dew Point Humidity Winds Wind Gusts Pressure Precip Precip Rate Daily Precip Total
12:00 AM 5.9°F-14.5°C 2.9°F-16.2°C 87% Calm Calm -- 29.77 in1008.1 mb - 0.00 in0.0 mm 0.00 in0.0 mm
01:00 AM 5.0°F-15.0°C 4.8°F-15.1°C 99% Calm Calm -- 29.79 in1008.8 mb - 0.00 in0.0 mm 0.00 in0.0 mm
02:00 AM 4.5°F-15.3°C 4.3°F-15.4°C 99% Calm Calm -- 29.80 in1009.1 mb - 0.00 in0.0 mm 0.00 in0.0 mm
03:00 AM 4.5°F-15.3°C 4.3°F-15.4°C 99% Calm Calm -- 29.82 in1009.8 mb - 0.00 in0.0 mm 0.00 in0.0 mm
04:00 AM 3.7°F-15.7°C 3.5°F-15.8°C 99% Calm Calm -- 29.81 in1009.5 mb - 0.00 in0.0 mm 0.00 in0.0 mm
05:00 AM 2.7°F-16.3°C 2.5°F-16.4°C 99% Calm Calm -- 29.82 in1009.8 mb - 0.00 in0.0 mm 0.00 in0.0 mm
06:00 AM 1.9°F-16.7°C 1.7°F-16.8°C 99% Calm Calm -- 29.84 in1010.5 mb - 0.00 in0.0 mm 0.00 in0.0 mm
07:00 AM 2.5°F-16.4°C 2.3°F-16.5°C 99% Calm Calm -- 29.85 in1010.8 mb - 0.00 in0.0 mm 0.00 in0.0 mm
08:00 AM 2.7°F-16.3°C -2.6°F-19.2°C 78% Calm Calm -- 29.85 in1010.8 mb - 0.00 in0.0 mm 0.00 in0.0 mm
09:00 AM 4.5°F-15.3°C 4.3°F-15.4°C 99% Calm Calm -- 29.86 in1011.2 mb - 0.00 in0.0 mm 0.00 in0.0 mm
10:00 AM 7.2°F-13.8°C 7.0°F-13.9°C 99% Calm Calm -- 29.87 in1011.5 mb - 0.00 in0.0 mm 0.00 in0.0 mm
11:00 AM 11.6°F-11.3°C 4.6°F-15.2°C 73% Calm Calm -- 29.86 in1011.2 mb - 0.00 in0.0 mm 0.00 in0.0 mm
12:00 PM 13.0°F-10.6°C 12.7°F-10.7°C 99% Calm Calm -- 29.85 in1010.8 mb - 0.00 in0.0 mm 0.00 in0.0 mm
01:00 PM 13.2°F-10.4°C -2.8°F-19.3°C 48% Calm Calm -- 29.85 in1010.8 mb - 0.00 in0.0 mm 0.00 in0.0 mm
02:00 PM 17.6°F-8.0°C 17.4°F-8.1°C 99% Calm Calm -- 29.83 in1010.2 mb - 0.00 in0.0 mm 0.00 in0.0 mm
03:00 PM 12.8°F-10.7°C 12.6°F-10.8°C 99% Calm Calm -- 29.82 in1009.8 mb - 0.00 in0.0 mm 0.00 in0.0 mm
04:00 PM 13.1°F-10.5°C 12.9°F-10.6°C 99% Calm Calm -- 29.82 in1009.8 mb - 0.00 in0.0 mm 0.00 in0.0 mm
05:00 PM 11.7°F-11.3°C 11.5°F-11.4°C 99% Calm Calm -- 29.81 in1009.5 mb - 0.00 in0.0 mm 0.00 in0.0 mm
06:00 PM 10.4°F-12.0°C 10.2°F-12.1°C 99% Calm Calm -- 29.79 in1008.8 mb - 0.00 in0.0 mm 0.00 in0.0 mm
07:00 PM 8.4°F-13.1°C 8.2°F-13.2°C 99% Calm Calm -- 29.77 in1008.1 mb - 0.00 in0.0 mm 0.00 in0.0 mm
08:00 PM 7.7°F-13.5°C 7.5°F-13.6°C 99% Calm Calm -- 29.76 in1007.8 mb - 0.00 in0.0 mm 0.00 in0.0 mm
09:00 PM 7.5°F-13.6°C 7.3°F-13.7°C 99% Calm Calm -- 29.74 in1007.1 mb - 0.00 in0.0 mm 0.00 in0.0 mm
10:00 PM 7.5°F-13.6°C 7.3°F-13.7°C 99% Calm Calm -- 29.71 in1006.1 mb - 0.00 in0.0 mm 0.00 in0.0 mm
11:00 PM 7.5°F-13.6°C 2.1°F-16.6°C 78% Calm Calm -- 29.70 in1005.8 mb - 0.00 in0.0 mm 0.00 in0.0 mm